Time;durP1;ratioP1;P1;durP2;ratioP2;P2;SDS_P1;SDS_P2;PMS_P1;PMS_P2;Temp;Humidity;BMP_temperature;BMP_pressure;BME280_temperature;BME280_humidity;BME280_pressure;Samples;Min_cycle;Max_cycle;Signal;HPM_P1;HPM_P2
2021/03/14 00:00:29;;;;;;;7.20;2.00;;;;;;;23.58;37.03;98635.06;4484063;32;33963;-57
2021/03/14 00:02:57;;;;;;;7.10;2.15;;;;;;;23.57;37.01;98632.62;4484137;32;33619;-52
2021/03/14 00:05:24;;;;;;;9.57;2.40;;;;;;;23.57;37.10;98628.00;4484267;32;34050;-49
2021/03/14 00:07:51;;;;;;;9.95;2.83;;;;;;;23.56;37.18;98631.81;4483894;32;34625;-66
2021/03/14 00:10:19;;;;;;;5.32;2.05;;;;;;;23.56;37.14;98630.97;4484415;32;34734;-51
2021/03/14 00:12:46;;;;;;;7.37;2.10;;;;;;;23.55;37.24;98642.94;4484007;32;33544;-51
2021/03/14 00:15:13;;;;;;;8.40;2.35;;;;;;;23.55;37.25;98645.66;4483115;32;33349;-66
2021/03/14 00:17:42;;;;;;;7.00;2.03;;;;;;;23.54;37.38;98631.22;4483983;32;34530;-47
2021/03/14 00:20:09;;;;;;;5.07;1.98;;;;;;;23.53;37.31;98624.13;4484083;32;33929;-56
2021/03/14 00:22:36;;;;;;;7.43;2.05;;;;;;;23.53;37.33;98635.03;4483814;32;33734;-52
2021/03/14 00:25:06;;;;;;;8.13;1.87;;;;;;;23.53;37.28;98634.19;4483966;32;34136;-56
2021/03/14 00:27:33;;;;;;;10.80;2.17;;;;;;;23.51;37.27;98630.94;4483976;32;33873;-56
2021/03/14 00:30:00;;;;;;;7.18;2.08;;;;;;;23.52;37.36;98614.31;4483482;32;33940;-54
2021/03/14 00:32:27;;;;;;;11.38;2.25;;;;;;;23.51;37.37;98607.25;4483962;32;34039;-48
2021/03/14 00:34:55;;;;;;;15.88;2.40;;;;;;;23.50;37.32;98611.06;4483903;32;34940;-57
2021/03/14 00:37:23;;;;;;;12.20;2.37;;;;;;;23.50;37.29;98613.78;4483702;32;34378;-50
2021/03/14 00:39:50;;;;;;;14.87;2.67;;;;;;;23.50;37.29;98608.31;4484169;32;33726;-50
2021/03/14 00:42:18;;;;;;;8.68;1.95;;;;;;;23.50;37.31;98604.75;4483686;32;34647;-66
2021/03/14 00:44:45;;;;;;;6.47;1.87;;;;;;;23.49;37.39;98612.09;4483608;32;34284;-51
2021/03/14 00:47:12;;;;;;;8.52;2.17;;;;;;;23.49;37.30;98611.28;4483870;32;33771;-54
2021/03/14 00:49:40;;;;;;;9.93;2.12;;;;;;;23.48;37.41;98609.66;4483892;32;34771;-57
2021/03/14 00:52:07;;;;;;;7.37;1.90;;;;;;;23.46;37.37;98604.47;4483510;32;33769;-45
2021/03/14 00:54:35;;;;;;;6.60;2.42;;;;;;;23.46;37.36;98601.75;4483947;32;33397;-62
2021/03/14 00:57:02;;;;;;;7.22;1.77;;;;;;;23.46;37.32;98600.94;4483616;32;34753;-51
2021/03/14 00:59:30;;;;;;;7.15;1.90;;;;;;;23.44;37.35;98590.28;4483842;32;33820;-64
2021/03/14 01:01:58;;;;;;;13.48;2.12;;;;;;;23.43;37.32;98594.91;4483855;32;33616;-45
2021/03/14 01:04:25;;;;;;;6.87;1.95;;;;;;;23.45;37.44;98593.81;4483401;32;33411;-59
2021/03/14 01:06:52;;;;;;;5.32;1.90;;;;;;;23.44;37.48;98587.56;4483249;32;33883;-58
2021/03/14 01:09:20;;;;;;;20.23;2.50;;;;;;;23.42;37.38;98587.81;4483533;32;33780;-47
2021/03/14 01:11:47;;;;;;;8.48;2.03;;;;;;;23.41;37.59;98586.19;4483363;32;34695;-62
2021/03/14 01:14:14;;;;;;;11.63;2.50;;;;;;;23.41;37.56;98586.19;4483567;32;33398;-49
2021/03/14 01:16:42;;;;;;;9.70;2.10;;;;;;;23.41;37.52;98597.06;4483615;32;33815;-57
2021/03/14 01:19:10;;;;;;;7.85;2.05;;;;;;;23.40;37.59;98598.13;4482285;31;34609;-63
2021/03/14 01:21:37;;;;;;;5.57;1.85;;;;;;;23.39;37.58;98588.31;4482877;32;35344;-49
2021/03/14 01:24:04;;;;;;;8.75;2.33;;;;;;;23.39;37.53;98588.31;4483225;32;33254;-56
2021/03/14 01:26:31;;;;;;;4.95;1.87;;;;;;;23.40;37.57;98587.22;4483108;32;33655;-50
2021/03/14 01:28:58;;;;;;;7.95;2.15;;;;;;;23.39;37.61;98584.78;4484463;32;34671;-50
2021/03/14 01:31:26;;;;;;;6.50;1.80;;;;;;;23.39;37.61;98587.50;4485290;32;33749;-59
2021/03/14 01:33:53;;;;;;;8.23;2.08;;;;;;;23.39;37.60;98582.06;4485247;32;34504;-45
2021/03/14 01:36:20;;;;;;;8.73;2.42;;;;;;;23.38;37.60;98591.31;4485084;32;35475;-47
2021/03/14 01:38:47;;;;;;;9.13;2.00;;;;;;;23.37;37.60;98595.94;4485144;32;33840;-54
2021/03/14 01:41:14;;;;;;;8.75;2.05;;;;;;;23.37;37.52;98595.09;4485190;32;33861;-47
2021/03/14 01:43:42;;;;;;;6.30;1.87;;;;;;;23.36;37.64;98605.19;4484954;32;34318;-53
2021/03/14 01:46:10;;;;;;;6.43;1.95;;;;;;;23.35;37.59;98603.50;4485402;32;33719;-54
2021/03/14 01:48:37;;;;;;;9.07;1.90;;;;;;;23.35;37.63;98602.69;4483878;32;33930;-54
2021/03/14 01:51:05;;;;;;;6.75;1.90;;;;;;;23.35;37.64;98603.50;4484973;32;34204;-63
2021/03/14 01:53:32;;;;;;;7.82;1.70;;;;;;;23.35;37.46;98602.69;4485193;32;33967;-49
2021/03/14 01:56:00;;;;;;;7.30;2.15;;;;;;;23.35;37.47;98603.50;4485081;32;33662;-57
2021/03/14 01:58:27;;;;;;;7.57;1.73;;;;;;;23.33;37.43;98594.78;4484944;32;34896;-55
2021/03/14 02:00:55;;;;;;;6.95;1.92;;;;;;;23.34;37.47;98593.72;4485069;32;33712;-48
2021/03/14 02:03:23;;;;;;;5.90;1.80;;;;;;;23.35;37.49;98591.81;4484969;32;33225;-57
2021/03/14 02:05:51;;;;;;;7.18;1.90;;;;;;;23.34;37.57;98595.59;4484750;32;33573;-53
2021/03/14 02:08:18;;;;;;;6.05;2.05;;;;;;;23.34;37.56;98598.31;4483388;32;33975;-62
2021/03/14 02:10:47;;;;;;;9.77;2.12;;;;;;;23.33;37.80;98586.62;4483640;32;34666;-52
2021/03/14 02:13:19;;;;;;;7.30;1.55;;;;;;;23.34;37.81;98590.16;4483495;32;33794;-59
2021/03/14 02:15:50;;;;;;;6.47;2.03;;;;;;;23.33;37.76;98583.09;4470938;32;33900;-57
2021/03/14 02:18:17;;;;;;;5.07;2.00;;;;;;;23.32;37.75;98584.97;4483383;31;33863;-53
2021/03/14 02:20:45;;;;;;;7.03;1.95;;;;;;;23.32;37.76;98589.59;4483756;32;34855;-57
2021/03/14 02:23:21;;;;;;;6.60;1.65;;;;;;;23.32;37.64;98589.59;4483633;32;33293;-47
2021/03/14 02:26:09;;;;;;;5.50;1.65;;;;;;;23.32;37.81;98581.44;4483453;32;34861;-47
2021/03/14 02:28:36;;;;;;;6.10;1.67;;;;;;;23.31;37.73;98583.31;4483818;32;35539;-57
2021/03/14 02:31:05;;;;;;;13.23;2.17;;;;;;;23.31;37.68;98582.50;4470572;32;33712;-52
2021/03/14 02:33:45;;;;;;;4.85;1.40;;;;;;;23.89;36.77;98587.22;4523348;31;137693;-50
2021/03/14 02:36:12;;;;;;;6.12;1.70;;;;;;;23.89;36.77;98587.22;4497306;31;33943;-60
2021/03/14 02:38:42;;;;;;;4.85;1.48;;;;;;;23.32;37.60;98592.34;4497447;31;34582;-55
2021/03/14 02:41:09;;;;;;;;;;;;;;;23.28;37.65;98594.72;4511136;31;33836;-64
2021/03/14 02:43:37;;;;;;;7.65;1.67;;;;;;;23.38;37.51;98597.56;4495400;31;34177;-53
2021/03/14 02:46:04;;;;;;;5.75;1.50;;;;;;;23.31;37.58;98602.38;4496254;31;33084;-60
2021/03/14 02:48:31;;;;;;;8.90;1.80;;;;;;;23.28;37.61;98602.91;4510586;31;33478;-50
2021/03/14 02:50:59;;;;;;;10.30;1.85;;;;;;;23.28;37.64;98607.53;4510345;31;33582;-53
2021/03/14 02:53:26;;;;;;;6.32;1.70;;;;;;;23.27;37.75;98597.69;4510429;31;33624;-57
2021/03/14 02:55:54;;;;;;;9.07;3.05;;;;;;;23.26;37.71;98596.06;4510419;31;34122;-50
2021/03/14 02:58:21;;;;;;;6.40;1.40;;;;;;;23.26;37.61;98596.88;4510312;31;33911;-61
2021/03/14 03:00:51;;;;;;;9.80;2.70;;;;;;;23.26;37.60;98599.59;4510446;31;33735;-55
2021/03/14 03:03:27;;;;;;;5.47;1.95;;;;;;;23.26;37.76;98598.78;4509672;31;34575;-66
2021/03/14 03:05:58;;;;;;;7.03;2.15;;;;;;;23.26;37.63;98594.16;4510501;31;32992;-48
2021/03/14 03:08:26;;;;;;;6.68;1.48;;;;;;;23.24;37.89;98596.31;4511522;31;34497;-59
2021/03/14 03:10:53;;;;;;;5.75;1.70;;;;;;;23.25;37.73;98588.97;4511440;31;34062;-57
2021/03/14 03:13:20;;;;;;;6.85;1.45;;;;;;;23.24;37.73;98595.50;4504699;31;33638;-58
2021/03/14 03:15:48;;;;;;;6.00;1.40;;;;;;;23.23;37.75;98594.69;4495460;31;32825;-68
2021/03/14 03:18:15;;;;;;;5.32;1.70;;;;;;;23.22;37.78;98590.28;4501505;31;34791;-69
2021/03/14 03:20:42;;;;;;;6.70;2.33;;;;;;;23.23;37.85;98594.69;4476857;32;34848;-66
2021/03/14 03:23:09;;;;;;;5.82;1.42;;;;;;;23.23;37.98;98602.84;4478648;32;33324;-69
2021/03/14 03:25:36;;;;;;;5.68;1.73;;;;;;;23.22;37.77;98603.91;4478152;32;33155;-69
2021/03/14 03:28:04;;;;;;;5.82;2.05;;;;;;;23.22;37.77;98601.16;4479868;32;34522;-69
2021/03/14 03:30:32;;;;;;;6.10;1.62;;;;;;;23.22;37.67;98597.63;4489493;32;34877;-62
2021/03/14 03:32:59;;;;;;;7.00;1.40;;;;;;;23.22;37.68;98601.16;4495109;32;33776;-69
2021/03/14 03:35:27;;;;;;;4.40;1.60;;;;;;;23.21;37.89;98598.72;4493590;32;33292;-69
2021/03/14 03:37:54;;;;;;;5.30;2.00;;;;;;;23.21;37.94;98596.00;4495482;32;34740;-61
2021/03/14 03:40:23;;;;;;;6.00;1.50;;;;;;;23.21;37.72;98594.09;4493837;32;35049;-64
2021/03/14 03:42:55;;;;;;;8.20;1.73;;;;;;;23.20;37.72;98578.03;4495223;32;34264;-69
2021/03/14 03:45:22;;;;;;;5.45;1.70;;;;;;;23.19;37.66;98563.59;4470159;32;34340;-70
2021/03/14 03:47:49;;;;;;;5.18;1.85;;;;;;;23.20;37.81;98570.69;4484690;32;33921;-65
2021/03/14 03:50:16;;;;;;;5.28;1.58;;;;;;;23.20;37.66;98565.25;4468620;32;33562;-69
2021/03/14 03:52:45;;;;;;;3.33;1.30;;;;;;;23.19;37.91;98573.66;4484764;32;34320;-69
2021/03/14 03:55:12;;;;;;;5.60;1.55;;;;;;;23.19;37.75;98576.37;4467151;32;34028;-69
2021/03/14 03:57:41;;;;;;;11.77;1.60;;;;;;;23.20;37.69;98572.59;4467889;32;33910;-69
2021/03/14 04:00:09;;;;;;;7.43;1.65;;;;;;;23.17;37.67;98572.03;4472790;32;33976;-69
2021/03/14 04:02:37;;;;;;;5.07;1.62;;;;;;;23.17;37.70;98574.75;4475532;32;33698;-65
2021/03/14 04:05:08;;;;;;;7.72;1.65;;;;;;;23.18;37.67;98578.28;4483618;32;32862;-68
2021/03/14 04:07:39;;;;;;;8.10;1.75;;;;;;;23.17;37.68;98582.06;4484081;32;33527;-66
2021/03/14 04:10:09;;;;;;;4.37;1.58;;;;;;;23.17;37.75;98585.63;4482682;32;34826;-66
2021/03/14 04:12:39;;;;;;;5.10;1.93;;;;;;;23.16;37.67;98581.25;4484632;32;33415;-69
2021/03/14 04:15:07;;;;;;;6.53;1.60;;;;;;;23.16;37.72;98573.09;4469091;32;33950;-69
2021/03/14 04:17:35;;;;;;;6.97;1.77;;;;;;;23.16;37.82;98572.25;4484619;32;33816;-69
2021/03/14 04:20:04;;;;;;;5.25;1.48;;;;;;;23.16;37.69;98583.16;4469118;32;33798;-69
2021/03/14 04:22:31;;;;;;;8.82;1.85;;;;;;;23.15;37.72;98586.94;4483312;32;33534;-69
2021/03/14 04:24:59;;;;;;;5.45;1.90;;;;;;;23.15;37.69;98592.41;4482930;32;33245;-69
2021/03/14 04:27:26;;;;;;;6.47;1.60;;;;;;;23.15;37.71;98601.38;4483278;32;33761;-70
2021/03/14 04:29:53;;;;;;;7.20;1.73;;;;;;;23.15;37.79;98601.38;4483251;32;33531;-69
2021/03/14 04:32:22;;;;;;;6.82;2.20;;;;;;;23.15;37.79;98606.81;4470087;32;33617;-67
2021/03/14 04:34:50;;;;;;;5.40;1.90;;;;;;;23.14;37.81;98602.47;4475818;32;33289;-69
2021/03/14 04:37:17;;;;;;;4.43;1.50;;;;;;;23.14;37.70;98596.19;4467438;32;33779;-68
2021/03/14 04:39:44;;;;;;;6.05;1.90;;;;;;;23.14;37.66;98602.47;4470688;32;34658;-69
2021/03/14 04:42:12;;;;;;;6.00;1.70;;;;;;;23.13;37.81;98616.31;4470313;32;34455;-69
2021/03/14 04:44:39;;;;;;;7.47;1.65;;;;;;;23.13;37.81;98628.03;4482446;32;33870;-68
2021/03/14 04:47:08;;;;;;;3.83;1.60;;;;;;;23.13;37.84;98632.66;4484519;32;33805;-67
2021/03/14 04:49:36;;;;;;;3.72;1.42;;;;;;;23.12;37.79;98631.81;4479907;32;33950;-67
2021/03/14 04:52:04;;;;;;;4.40;1.45;;;;;;;23.13;37.84;98625.31;4470047;32;33662;-70
2021/03/14 04:54:31;;;;;;;5.55;1.70;;;;;;;23.12;37.98;98626.34;4481557;32;33227;-69
2021/03/14 04:56:58;;;;;;;5.32;1.10;;;;;;;23.11;37.87;98635.59;4482763;32;34513;-66
2021/03/14 04:59:25;;;;;;;5.37;1.50;;;;;;;23.12;37.76;98636.44;4467629;32;34953;-65
2021/03/14 05:01:52;;;;;;;4.85;1.67;;;;;;;23.11;37.82;98640.22;4468054;32;33846;-69
2021/03/14 05:04:20;;;;;;;4.78;1.50;;;;;;;23.11;37.79;98643.78;4482381;32;33206;-66
2021/03/14 05:06:50;;;;;;;6.60;1.70;;;;;;;23.11;37.87;98623.91;4476391;32;33720;-50
2021/03/14 05:09:17;;;;;;;5.10;1.33;;;;;;;23.12;38.01;98625.53;4482911;32;33605;-50
2021/03/14 05:11:45;;;;;;;4.10;1.50;;;;;;;23.09;37.95;98618.72;4484176;32;33794;-56
2021/03/14 05:14:15;;;;;;;13.02;1.67;;;;;;;23.08;37.93;98627.97;4482895;32;34407;-49
2021/03/14 05:16:42;;;;;;;7.07;1.40;;;;;;;23.10;38.00;98622.25;4482999;32;33731;-66
2021/03/14 05:19:09;;;;;;;5.10;1.73;;;;;;;23.08;37.95;98621.69;4470036;32;33858;-47
2021/03/14 05:21:56;;;;;;;8.35;1.40;;;;;;;23.07;37.99;98620.03;4484136;32;33640;-58
2021/03/14 05:24:23;;;;;;;5.57;1.50;;;;;;;23.07;37.90;98609.97;4477780;32;33966;-58
2021/03/14 05:26:50;;;;;;;4.60;1.50;;;;;;;23.07;37.95;98611.88;4470168;32;34563;-56
2021/03/14 05:29:17;;;;;;;4.10;1.27;;;;;;;23.07;37.79;98614.59;4482878;32;33805;-61
2021/03/14 05:31:45;;;;;;;3.72;1.40;;;;;;;23.07;37.84;98618.12;4483096;32;33691;-52
2021/03/14 05:34:16;;;;;;;3.70;1.50;;;;;;;23.08;37.87;98613.50;4482613;32;33332;-52
2021/03/14 05:36:44;;;;;;;4.37;1.60;;;;;;;23.06;37.91;98613.78;4484202;32;33499;-51
2021/03/14 05:39:11;;;;;;;5.62;1.60;;;;;;;23.06;37.92;98621.94;4484157;32;33954;-66
2021/03/14 05:41:39;;;;;;;8.60;1.70;;;;;;;23.05;37.92;98617.59;4483902;32;34712;-53
2021/03/14 05:44:07;;;;;;;3.78;1.50;;;;;;;23.04;38.01;98621.37;4484066;32;33231;-61
2021/03/14 05:46:34;;;;;;;4.65;1.40;;;;;;;23.04;37.93;98628.72;4483900;32;34725;-49
2021/03/14 05:49:05;;;;;;;2.65;1.20;;;;;;;23.04;37.96;98631.44;4483942;32;33863;-55
2021/03/14 05:51:40;;;;;;;4.87;1.92;;;;;;;23.03;37.93;98624.34;4483987;32;34645;-53
2021/03/14 05:54:14;;;;;;;4.93;1.35;;;;;;;23.04;37.97;98634.16;4482509;32;33285;-57
2021/03/14 05:56:43;;;;;;;3.03;1.37;;;;;;;23.01;37.92;98640.91;4483922;32;34557;-49
2021/03/14 05:59:11;;;;;;;7.18;1.70;;;;;;;23.03;37.96;98651.53;4483533;32;34817;-55
2021/03/14 06:01:39;;;;;;;6.95;1.60;;;;;;;23.02;37.91;98652.63;4484283;32;33461;-60
2021/03/14 06:04:09;;;;;;;3.42;1.40;;;;;;;23.00;37.90;98655.59;4469905;32;33250;-50
2021/03/14 06:06:37;;;;;;;4.53;1.70;;;;;;;23.00;37.86;98652.87;4483299;32;34735;-55
2021/03/14 06:09:04;;;;;;;3.70;1.40;;;;;;;23.01;37.98;98654.53;4483806;32;33941;-57
2021/03/14 06:11:32;;;;;;;7.60;1.60;;;;;;;23.01;37.93;98650.97;4483760;32;33716;-60
2021/03/14 06:14:02;;;;;;;7.03;1.30;;;;;;;23.01;37.97;98651.81;4481510;32;33959;-53
2021/03/14 06:16:29;;;;;;;8.68;1.80;;;;;;;23.00;37.89;98655.59;4481890;32;33904;-45
2021/03/14 06:18:56;;;;;;;10.18;1.45;;;;;;;23.00;37.98;98644.72;4462486;32;34449;-50
2021/03/14 06:21:30;;;;;;;7.93;1.67;;;;;;;23.00;38.04;98643.91;4466554;32;34431;-64
2021/03/14 06:24:04;;;;;;;5.90;1.48;;;;;;;23.00;38.06;98652.06;4481456;32;33283;-53
2021/03/14 06:26:47;;;;;;;5.25;1.92;;;;;;;22.99;37.97;98651.25;4483635;32;33590;-48
2021/03/14 06:29:24;;;;;;;4.40;1.40;;;;;;;23.00;38.06;98657.50;4483588;32;34861;-63
2021/03/14 06:32:01;;;;;;;7.75;1.50;;;;;;;23.00;38.01;98650.16;4482742;32;33618;-48
2021/03/14 06:34:32;;;;;;;7.18;1.58;;;;;;;22.98;38.08;98651.47;4483304;32;34064;-60
2021/03/14 06:37:19;;;;;;;4.93;1.40;;;;;;;22.98;37.94;98646.84;4483429;32;34805;-56
2021/03/14 06:39:49;;;;;;;15.30;1.77;;;;;;;23.02;37.81;98647.19;4483649;32;33793;-56
2021/03/14 06:42:32;;;;;;;5.25;1.40;;;;;;;22.99;37.88;98647.66;4483568;32;33755;-52
2021/03/14 06:45:13;;;;;;;6.32;1.42;;;;;;;23.00;38.00;98647.44;4483270;32;34349;-48
2021/03/14 06:47:44;;;;;;;5.00;1.58;;;;;;;22.99;37.88;98645.81;4483225;32;33901;-49
2021/03/14 06:50:35;;;;;;;4.72;1.60;;;;;;;22.99;37.88;98650.38;4483148;32;33656;-51
2021/03/14 06:53:07;;;;;;;11.32;1.50;;;;;;;23.00;37.87;98660.22;4481731;32;34392;-58
2021/03/14 06:55:35;;;;;;;4.80;1.48;;;;;;;22.98;37.84;98659.63;4483189;32;32725;-54
2021/03/14 06:58:37;;;;;;;6.65;1.50;;;;;;;22.98;37.90;98656.91;4483143;32;33588;-50
2021/03/14 07:01:10;;;;;;;6.93;1.50;;;;;;;23.01;37.78;98656.41;4433936;32;34808;-59
2021/03/14 07:03:45;;;;;;;4.43;1.85;;;;;;;22.97;37.74;98666.97;4475300;31;33797;-54
2021/03/14 07:06:13;;;;;;;3.60;1.52;;;;;;;22.97;37.92;98671.59;4482912;32;33217;-49
2021/03/14 07:08:40;;;;;;;6.70;1.70;;;;;;;22.96;37.83;98673.50;4482909;32;34747;-56
2021/03/14 07:11:08;;;;;;;2.40;1.52;;;;;;;22.96;37.93;98681.66;4482826;32;33930;-65
2021/03/14 07:13:38;;;;;;;6.10;1.48;;;;;;;22.96;37.87;98692.53;4481635;32;33592;-55
2021/03/14 07:16:05;;;;;;;3.87;1.77;;;;;;;22.96;37.87;98697.16;4482810;32;33346;-44
2021/03/14 07:18:36;;;;;;;4.12;1.35;;;;;;;22.95;37.91;98703.69;4483084;32;34016;-46
2021/03/14 07:21:22;;;;;;;5.40;1.40;;;;;;;22.96;37.86;98713.47;4479226;32;34147;-67
2021/03/14 07:23:50;;;;;;;5.12;1.27;;;;;;;22.98;37.97;98709.41;4484463;32;33817;-67
2021/03/14 07:26:37;;;;;;;4.72;1.67;;;;;;;22.95;37.91;98723.53;4481478;32;34326;-66
2021/03/14 07:29:05;;;;;;;5.60;1.48;;;;;;;22.96;37.85;98717.03;4483953;32;33778;-66
2021/03/14 07:31:32;;;;;;;5.87;1.40;;;;;;;22.95;37.91;98728.16;4482976;32;33852;-51
2021/03/14 07:34:03;;;;;;;4.80;1.60;;;;;;;22.94;37.88;98724.59;4474079;32;33136;-50
2021/03/14 07:36:31;;;;;;;5.60;1.30;;;;;;;22.93;37.87;98728.37;4476451;32;33265;-55
2021/03/14 07:38:58;;;;;;;3.53;1.17;;;;;;;22.94;37.91;98723.78;4484303;32;33853;-58
2021/03/14 07:41:25;;;;;;;6.25;1.30;;;;;;;22.92;37.94;98726.75;4484574;32;34963;-52
2021/03/14 07:43:53;;;;;;;5.62;1.40;;;;;;;22.91;37.94;98723.22;4485184;32;33532;-64
2021/03/14 07:46:23;;;;;;;6.18;1.40;;;;;;;22.92;37.90;98729.47;4484883;32;33090;-47
2021/03/14 07:48:53;;;;;;;4.68;1.60;;;;;;;22.93;37.79;98739.28;4484980;32;34698;-52
2021/03/14 07:51:22;;;;;;;5.80;1.50;;;;;;;22.94;37.79;98737.38;4483541;32;33538;-51
2021/03/14 07:53:49;;;;;;;6.07;1.25;;;;;;;22.92;38.02;98748.50;4483423;32;33802;-56
2021/03/14 07:56:16;;;;;;;6.18;1.70;;;;;;;22.93;38.02;98761.03;4483148;32;34338;-52
2021/03/14 07:58:43;;;;;;;5.68;1.77;;;;;;;22.94;37.99;98756.41;4484857;32;33747;-52
2021/03/14 08:01:31;;;;;;;7.12;1.77;;;;;;;22.92;38.13;98756.66;4483459;32;33866;-63
2021/03/14 08:03:59;;;;;;;5.10;1.48;;;;;;;22.95;37.92;98755.38;4484675;32;34463;-54
2021/03/14 08:06:45;;;;;;;5.28;1.55;;;;;;;22.94;38.06;98753.69;4482550;32;33256;-58
2021/03/14 08:09:12;;;;;;;5.62;1.27;;;;;;;22.93;38.08;98752.88;4468925;32;33908;-56
2021/03/14 08:11:39;;;;;;;7.07;1.65;;;;;;;22.90;38.18;98748.78;4475349;32;33970;-48
2021/03/14 08:14:06;;;;;;;8.05;1.30;;;;;;;22.92;38.10;98759.37;4479977;32;33798;-58
2021/03/14 08:16:33;;;;;;;3.70;1.10;;;;;;;22.92;38.18;98748.50;4478679;32;34389;-56
2021/03/14 08:19:12;;;;;;;5.05;1.60;;;;;;;22.92;38.00;98746.59;4480530;32;34741;-50
2021/03/14 08:21:39;;;;;;;6.00;1.40;;;;;;;22.94;37.84;98753.69;4483464;32;34795;-55
2021/03/14 08:24:13;;;;;;;7.37;1.70;;;;;;;22.91;37.95;98750.41;4480835;32;34396;-49
2021/03/14 08:26:40;;;;;;;4.90;1.90;;;;;;;22.92;37.92;98745.78;4484424;32;32981;-56
2021/03/14 08:29:14;;;;;;;8.95;1.62;;;;;;;22.92;37.86;98748.50;4472649;32;32755;-49
2021/03/14 08:31:53;;;;;;;5.10;1.40;;;;;;;22.93;38.02;98752.88;4481130;32;34950;-49
2021/03/14 08:34:23;;;;;;;4.28;1.40;;;;;;;22.92;38.03;98752.06;4484378;32;34440;-48
2021/03/14 08:36:51;;;;;;;;;;;;;;;22.91;38.20;98757.75;4485025;32;33176;-62
2021/03/14 08:39:22;;;;;;;6.72;2.15;;;;;;;23.01;37.97;98747.03;4484667;32;34760;-65
2021/03/14 08:41:55;;;;;;;4.25;1.40;;;;;;;22.94;37.97;98750.97;4484681;32;35155;-49
2021/03/14 08:44:32;;;;;;;6.03;1.27;;;;;;;22.91;38.28;98760.47;4484696;32;34631;-58
2021/03/14 08:47:03;;;;;;;5.90;1.37;;;;;;;22.91;38.16;98760.47;4484433;32;33175;-53
2021/03/14 08:49:32;;;;;;;2.60;1.15;;;;;;;22.90;38.00;98764.25;4484577;32;34810;-53
2021/03/14 08:51:59;;;;;;;9.10;2.10;;;;;;;22.91;38.08;98764.00;4484173;32;34651;-60
2021/03/14 08:54:43;;;;;;;6.15;1.30;;;;;;;22.92;38.11;98762.94;4484361;32;33863;-63
2021/03/14 08:57:12;;;;;;;10.38;1.87;;;;;;;22.92;37.78;98776.53;4484433;32;32945;-58
2021/03/14 08:59:50;;;;;;;5.78;1.45;;;;;;;22.91;37.44;98780.31;4484513;32;33507;-56
2021/03/14 09:02:30;;;;;;;3.83;1.33;;;;;;;22.91;37.15;98782.22;4484358;32;34583;-53
2021/03/14 09:05:11;;;;;;;6.78;1.58;;;;;;;22.91;36.91;98780.31;4484654;32;34628;-49
2021/03/14 09:07:39;;;;;;;5.07;1.70;;;;;;;22.90;37.26;98777.88;4484492;32;33290;-53
2021/03/14 09:10:11;;;;;;;9.95;1.90;;;;;;;22.86;37.15;98776.69;4484306;32;33746;-49
2021/03/14 09:12:40;;;;;;;10.32;1.65;;;;;;;22.85;37.23;98772.31;4484528;32;33817;-56
2021/03/14 09:15:13;;;;;;;14.85;1.65;;;;;;;22.86;37.16;98779.41;4484166;32;34278;-52
2021/03/14 09:17:42;;;;;;;11.98;2.03;;;;;;;22.87;37.24;98762.81;4484407;32;34745;-53
2021/03/14 09:20:23;;;;;;;8.65;1.50;;;;;;;22.86;37.43;98758.47;4484380;32;33736;-50
2021/03/14 09:22:50;;;;;;;8.20;1.92;;;;;;;22.85;37.52;98756.81;4484472;32;34022;-61
2021/03/14 09:25:17;;;;;;;10.13;1.60;;;;;;;22.87;37.55;98762.00;4484113;32;33981;-53
2021/03/14 09:27:45;;;;;;;10.35;1.90;;;;;;;22.86;37.60;98765.78;4483976;32;33244;-54
2021/03/14 09:30:22;;;;;;;9.10;1.55;;;;;;;22.86;37.66;98763.91;4484171;32;33653;-50
2021/03/14 09:32:51;;;;;;;8.98;2.30;;;;;;;22.87;37.67;98765.53;4484306;32;33948;-50
2021/03/14 09:35:25;;;;;;;7.85;1.48;;;;;;;22.85;37.76;98761.44;4483084;32;33748;-60
2021/03/14 09:37:59;;;;;;;9.75;2.00;;;;;;;22.86;37.70;98766.63;4484239;32;33259;-55
2021/03/14 09:40:31;;;;;;;10.52;2.10;;;;;;;22.90;37.63;98767.00;4484340;32;33610;-49
2021/03/14 09:43:18;;;;;;;10.65;2.00;;;;;;;22.88;37.66;98763.63;4483667;32;33972;-48
2021/03/14 09:45:54;;;;;;;7.90;2.20;;;;;;;22.91;37.74;98765.91;4484319;31;33653;-54
2021/03/14 09:48:32;;;;;;;9.32;2.10;;;;;;;22.89;37.76;98755.25;4479949;32;34100;-57
2021/03/14 09:51:09;;;;;;;5.37;1.67;;;;;;;22.89;37.17;98759.88;4475679;32;33847;-64
2021/03/14 09:53:38;;;;;;;9.85;1.98;;;;;;;22.91;36.83;98764.00;4482895;32;33767;-55
2021/03/14 09:56:12;;;;;;;10.25;2.20;;;;;;;23.01;36.80;98766.06;4483665;32;33742;-55
2021/03/14 09:58:43;;;;;;;10.48;1.55;;;;;;;23.17;36.71;98770.69;4483895;31;31958;-50
2021/03/14 10:01:11;;;;;;;9.60;2.00;;;;;;;23.38;36.58;98758.16;4456325;32;35302;-62
2021/03/14 10:03:39;;;;;;;10.45;2.22;;;;;;;23.59;36.39;98769.31;4467905;32;33914;-49
2021/03/14 10:06:37;;;;;;;8.82;1.98;;;;;;;23.77;36.21;98758.16;4474997;32;33694;-58
2021/03/14 10:09:04;;;;;;;6.53;1.58;;;;;;;24.01;36.04;98763.31;4483885;32;33118;-60
2021/03/14 10:11:31;;;;;;;9.38;1.60;;;;;;;24.17;35.84;98757.81;4483726;32;34335;-54
2021/03/14 10:14:00;;;;;;;7.05;1.55;;;;;;;24.32;35.74;98750.84;4481763;32;34143;-62
2021/03/14 10:16:27;;;;;;;8.60;1.87;;;;;;;24.47;35.59;98761.13;4469717;32;34445;-48
2021/03/14 10:18:57;;;;;;;8.18;1.67;;;;;;;24.61;35.44;98759.59;4483382;32;33263;-57
2021/03/14 10:21:26;;;;;;;6.72;1.95;;;;;;;24.72;35.31;98761.34;4481163;32;34014;-56
2021/03/14 10:24:17;;;;;;;8.93;1.67;;;;;;;24.89;35.14;98761.19;4482685;32;34864;-49
2021/03/14 10:26:54;;;;;;;5.47;1.50;;;;;;;25.05;34.99;98767.63;4467908;32;33636;-48
2021/03/14 10:29:29;;;;;;;11.68;1.80;;;;;;;25.18;34.84;98767.16;4467685;32;33428;-56
2021/03/14 10:31:57;;;;;;;7.00;1.55;;;;;;;25.28;34.72;98763.72;4467578;32;33813;-50
2021/03/14 10:34:26;;;;;;;8.83;1.97;;;;;;;25.38;34.61;98755.56;4467603;32;33613;-51
2021/03/14 10:36:53;;;;;;;8.95;2.30;;;;;;;25.46;34.50;98752.34;4467840;32;33647;-58
2021/03/14 10:39:28;;;;;;;5.55;2.30;;;;;;;25.51;34.47;98748.78;4470566;32;33270;-53
2021/03/14 10:41:56;;;;;;;6.55;1.58;;;;;;;25.55;34.48;98749.91;4481461;32;34624;-60
2021/03/14 10:44:25;;;;;;;9.45;2.08;;;;;;;25.57;34.51;98756.75;4467812;32;33787;-52
2021/03/14 10:46:54;;;;;;;8.50;1.83;;;;;;;25.57;34.57;98742.28;4467434;32;33423;-50
2021/03/14 10:49:23;;;;;;;5.00;1.50;;;;;;;25.60;34.53;98747.19;4468906;32;33168;-51
2021/03/14 10:51:55;;;;;;;7.53;1.73;;;;;;;25.59;34.61;98740.09;4482987;32;34856;-53
2021/03/14 10:54:23;;;;;;;5.97;1.50;;;;;;;25.57;34.68;98743.09;4483645;32;33691;-58
2021/03/14 10:56:50;;;;;;;6.32;1.55;;;;;;;25.55;34.72;98742.53;4485057;32;34901;-57
2021/03/14 10:59:28;;;;;;;3.45;1.20;;;;;;;25.53;34.79;98738.44;4484877;32;33159;-61
2021/03/14 11:02:19;;;;;;;3.72;1.30;;;;;;;25.51;34.80;98735.97;4484693;32;35000;-51
2021/03/14 11:04:59;;;;;;;9.70;1.45;;;;;;;25.51;34.79;98732.41;4483884;32;33670;-54
2021/03/14 11:07:30;;;;;;;;;;;;;;;25.46;34.80;98725.03;4482120;32;33745;-56
2021/03/14 11:10:10;;;;;;;7.03;1.30;;;;;;;25.51;34.67;98721.47;4483632;32;33226;-62
2021/03/14 11:12:40;;;;;;;6.62;1.37;;;;;;;25.40;34.84;98712.41;4481846;32;32624;-62
2021/03/14 11:15:29;;;;;;;4.32;1.40;;;;;;;25.33;34.94;98718.13;4476030;32;33797;-49
2021/03/14 11:17:58;;;;;;;6.65;1.67;;;;;;;25.30;34.95;98709.66;4484816;32;34464;-52
2021/03/14 11:20:27;;;;;;;;;;;;;;;25.24;35.09;98716.19;4485428;32;32938;-55
2021/03/14 11:22:59;;;;;;;6.32;1.40;;;;;;;25.30;35.00;98731.50;4485305;32;34025;-50
2021/03/14 11:25:27;;;;;;;12.52;2.00;;;;;;;25.17;35.14;98736.31;4484827;32;33753;-59
2021/03/14 11:27:55;;;;;;;12.68;1.58;;;;;;;25.12;35.17;98743.66;4485125;32;34260;-51
2021/03/14 11:30:24;;;;;;;7.37;1.92;;;;;;;25.07;35.22;98744.44;4485097;32;32998;-60
2021/03/14 11:32:52;;;;;;;8.93;2.17;;;;;;;25.03;35.43;98737.84;4479131;32;35304;-54
2021/03/14 11:35:20;;;;;;;7.53;2.22;;;;;;;24.99;35.41;98738.63;4477866;32;33693;-58
2021/03/14 11:37:48;;;;;;;7.87;1.80;;;;;;;24.95;35.42;98741.06;4483830;32;33715;-59
2021/03/14 11:40:16;;;;;;;7.80;1.83;;;;;;;24.92;35.43;98741.59;4467709;32;33249;-57
2021/03/14 11:42:46;;;;;;;8.57;1.80;;;;;;;24.89;35.50;98755.75;4469282;32;34630;-51
2021/03/14 11:45:15;;;;;;;9.95;2.03;;;;;;;24.85;35.57;98754.62;4469196;32;33841;-51
2021/03/14 11:47:44;;;;;;;6.53;1.58;;;;;;;24.82;35.65;98758.72;4472977;32;33662;-47